createdAt,value
2023-12-02T00:00:01.872Z,3.89
2023-12-02T00:01:01.789Z,3.69
2023-12-02T00:02:01.734Z,3.74
2023-12-02T00:03:01.588Z,3.36
2023-12-02T00:04:02.472Z,3.67
2023-12-02T00:05:01.419Z,3.78
2023-12-02T00:06:01.406Z,3.83
2023-12-02T00:07:01.232Z,4.11
2023-12-02T00:08:01.173Z,3.64
2023-12-02T00:09:01.965Z,3.62
2023-12-02T00:10:00.970Z,3.80
2023-12-02T00:11:01.890Z,4.22
2023-12-02T00:12:00.947Z,3.67
2023-12-02T00:13:00.796Z,3.78
2023-12-02T00:14:00.696Z,4.15
2023-12-02T00:15:00.760Z,3.00
2023-12-02T00:16:00.526Z,3.90
2023-12-02T00:17:00.435Z,3.55
2023-12-02T00:18:00.559Z,3.63
2023-12-02T00:19:00.476Z,3.94
2023-12-02T00:20:00.875Z,3.52
2023-12-02T00:21:00.210Z,4.03
2023-12-02T00:22:00.044Z,3.52
2023-12-02T00:22:59.992Z,4.54
2023-12-02T00:23:59.990Z,3.80
2023-12-02T00:24:59.903Z,4.34
2023-12-02T00:25:59.788Z,4.29
2023-12-02T00:26:59.765Z,4.19
2023-12-02T00:28:00.424Z,4.08
2023-12-02T00:29:00.929Z,3.66
2023-12-02T00:29:59.503Z,3.78
2023-12-02T00:30:59.365Z,3.63
2023-12-02T00:31:59.284Z,3.78
2023-12-02T00:32:59.224Z,3.49
2023-12-02T00:33:59.227Z,3.66
2023-12-02T00:34:59.056Z,3.49
2023-12-02T00:35:58.981Z,3.95
2023-12-02T00:36:58.889Z,4.17
2023-12-02T00:37:58.821Z,3.92
2023-12-02T00:38:59.442Z,3.88
2023-12-02T00:39:58.925Z,3.83
2023-12-02T00:40:58.781Z,3.34
2023-12-02T00:41:58.741Z,3.65
2023-12-02T00:42:58.594Z,3.61
2023-12-02T00:43:58.599Z,3.25
2023-12-02T00:44:58.477Z,3.79
2023-12-02T00:45:58.383Z,3.58
2023-12-02T00:46:58.882Z,3.68
2023-12-02T00:47:58.238Z,3.51
2023-12-02T00:48:58.250Z,3.39
2023-12-02T00:49:58.035Z,3.37
2023-12-02T00:50:58.038Z,3.53
2023-12-02T00:51:57.938Z,3.65
2023-12-02T00:52:57.838Z,3.62
2023-12-02T00:53:57.818Z,3.65
2023-12-02T00:54:57.665Z,3.57
2023-12-02T00:55:57.641Z,3.58
2023-12-02T00:56:57.521Z,3.53
2023-12-02T00:57:57.459Z,3.86
2023-12-02T00:58:57.886Z,3.47
2023-12-02T00:59:57.312Z,3.86
2023-12-02T01:00:57.937Z,3.74
2023-12-02T01:01:57.215Z,3.65
2023-12-02T01:02:57.105Z,3.74
2023-12-02T01:03:57.000Z,3.99
2023-12-02T01:04:57.523Z,3.58
2023-12-02T01:05:56.888Z,3.31
2023-12-02T01:06:56.763Z,3.04
2023-12-02T01:07:56.585Z,3.15
2023-12-02T01:08:56.632Z,3.27
2023-12-02T01:09:56.486Z,3.06
2023-12-02T01:10:56.407Z,3.23
2023-12-02T01:11:56.331Z,3.03
2023-12-02T01:12:56.180Z,3.30
2023-12-02T01:13:56.171Z,3.87
2023-12-02T01:14:56.347Z,3.05
2023-12-02T01:15:56.955Z,3.39
2023-12-02T01:16:55.925Z,3.30
2023-12-02T01:17:56.484Z,3.40
2023-12-02T01:18:55.885Z,3.29
2023-12-02T01:19:56.474Z,3.11
2023-12-02T01:20:56.457Z,3.81
2023-12-02T01:21:55.552Z,2.97
2023-12-02T01:22:55.458Z,3.30
2023-12-02T01:23:55.379Z,3.25
2023-12-02T01:24:55.208Z,2.66
2023-12-02T01:25:55.166Z,2.02
2023-12-02T01:26:55.120Z,2.42
2023-12-02T01:27:55.909Z,2.33
2023-12-02T01:28:54.918Z,2.54
2023-12-02T01:29:54.910Z,2.57
2023-12-02T01:30:54.722Z,2.39
2023-12-02T01:31:54.718Z,2.48
2023-12-02T01:32:54.700Z,2.60
2023-12-02T01:33:54.601Z,2.11
2023-12-02T01:34:54.572Z,1.92
2023-12-02T01:35:54.500Z,2.17
2023-12-02T01:36:54.298Z,2.45
2023-12-02T01:37:54.887Z,2.86
2023-12-02T01:38:54.229Z,2.15
2023-12-02T01:39:54.131Z,1.86
2023-12-02T01:40:53.978Z,2.13
2023-12-02T01:41:54.496Z,2.15
2023-12-02T01:42:53.790Z,2.07
2023-12-02T01:43:53.669Z,1.76
2023-12-02T01:44:54.405Z,1.97
2023-12-02T01:45:53.562Z,1.76
2023-12-02T01:46:54.401Z,1.64
2023-12-02T01:47:53.558Z,2.44
2023-12-02T01:48:53.421Z,1.50
2023-12-02T01:49:53.311Z,2.38
2023-12-02T01:50:53.384Z,1.71
2023-12-02T01:51:53.134Z,1.68
2023-12-02T01:52:53.966Z,2.11
2023-12-02T01:53:53.989Z,1.85
2023-12-02T01:54:52.893Z,1.75
2023-12-02T01:55:53.498Z,1.61
2023-12-02T01:56:52.897Z,1.73
2023-12-02T01:57:52.623Z,1.81
2023-12-02T01:58:53.461Z,1.53
2023-12-02T01:59:52.485Z,1.58
2023-12-02T02:00:52.404Z,1.80
2023-12-02T02:01:52.376Z,1.70
2023-12-02T02:02:52.272Z,1.42
2023-12-02T02:03:52.942Z,1.36
2023-12-02T02:04:52.143Z,1.30
2023-12-02T02:05:52.045Z,1.54
2023-12-02T02:06:51.932Z,1.24
2023-12-02T02:07:51.790Z,1.89
2023-12-02T02:08:51.786Z,1.68
2023-12-02T02:09:52.431Z,1.61
2023-12-02T02:10:51.750Z,1.41
2023-12-02T02:11:51.654Z,1.52
2023-12-02T02:12:51.583Z,1.54
2023-12-02T02:13:51.476Z,1.68
2023-12-02T02:14:51.422Z,1.61
2023-12-02T02:15:51.346Z,1.62
2023-12-02T02:16:51.248Z,1.64
2023-12-02T02:17:51.207Z,1.91
2023-12-02T02:18:51.253Z,1.31
2023-12-02T02:19:51.034Z,1.52
2023-12-02T02:20:50.864Z,1.67
2023-12-02T02:21:51.529Z,1.18
2023-12-02T02:22:50.993Z,1.27
2023-12-02T02:23:50.873Z,1.56
2023-12-02T02:24:50.759Z,1.55
2023-12-02T02:25:50.762Z,1.39
2023-12-02T02:26:50.743Z,1.32
2023-12-02T02:27:50.638Z,1.18
2023-12-02T02:28:50.607Z,1.60
2023-12-02T02:29:50.904Z,1.32
2023-12-02T02:30:50.422Z,1.26
2023-12-02T02:31:50.309Z,1.36
2023-12-02T02:32:50.322Z,1.40
2023-12-02T02:33:50.239Z,1.07
2023-12-02T02:34:50.012Z,1.67
2023-12-02T02:35:50.102Z,1.16
2023-12-02T02:36:50.441Z,1.11
2023-12-02T02:37:50.495Z,1.70
2023-12-02T02:38:49.916Z,1.40
2023-12-02T02:39:49.809Z,1.38
2023-12-02T02:40:50.434Z,1.27
2023-12-02T02:41:49.625Z,1.40
2023-12-02T02:42:49.534Z,1.43
2023-12-02T02:43:49.468Z,1.38
2023-12-02T02:44:49.387Z,1.71
2023-12-02T02:45:49.297Z,1.27
2023-12-02T02:46:49.959Z,1.78
2023-12-02T02:47:49.398Z,2.21
2023-12-02T02:48:49.447Z,2.01
2023-12-02T02:49:49.873Z,1.88
2023-12-02T02:50:49.187Z,1.64
2023-12-02T02:51:49.121Z,2.18
2023-12-02T02:52:49.934Z,1.78
2023-12-02T02:53:48.933Z,1.85
2023-12-02T02:54:48.836Z,1.70
2023-12-02T02:55:48.723Z,1.57
2023-12-02T02:56:48.732Z,1.71
2023-12-02T02:57:48.641Z,1.63
2023-12-02T02:58:48.478Z,1.69
2023-12-02T02:59:48.502Z,1.91
2023-12-02T03:00:48.364Z,1.63
2023-12-02T03:01:48.337Z,1.48
2023-12-02T03:02:48.979Z,1.23
2023-12-02T03:03:48.149Z,1.36
2023-12-02T03:04:48.059Z,1.52
2023-12-02T03:05:48.002Z,1.16
2023-12-02T03:06:48.028Z,1.23
2023-12-02T03:07:47.779Z,1.23
2023-12-02T03:08:47.688Z,1.50
2023-12-02T03:09:47.700Z,1.53
2023-12-02T03:10:47.656Z,1.43
2023-12-02T03:11:49.562Z,1.63
2023-12-02T03:12:47.505Z,1.39
2023-12-02T03:13:48.535Z,1.40
2023-12-02T03:14:48.790Z,1.50
2023-12-02T03:15:47.323Z,1.32
2023-12-02T03:16:47.287Z,1.88
2023-12-02T03:17:47.186Z,1.57
2023-12-02T03:18:47.178Z,1.78
2023-12-02T03:19:47.101Z,1.53
2023-12-02T03:20:47.018Z,1.69
2023-12-02T03:21:46.955Z,1.68
2023-12-02T03:22:46.879Z,1.45
2023-12-02T03:23:46.767Z,1.65
2023-12-02T03:24:46.705Z,1.45
2023-12-02T03:25:46.595Z,1.69
2023-12-02T03:26:47.418Z,1.56
2023-12-02T03:27:46.478Z,1.68
2023-12-02T03:28:46.440Z,1.65
2023-12-02T03:29:46.961Z,1.30
2023-12-02T03:30:46.212Z,1.84
2023-12-02T03:31:46.149Z,1.77
2023-12-02T03:32:46.078Z,1.45
2023-12-02T03:33:46.051Z,1.07
2023-12-02T03:34:45.968Z,1.25
2023-12-02T03:35:45.823Z,1.37
2023-12-02T03:36:45.780Z,1.42
2023-12-02T03:37:45.730Z,1.45
2023-12-02T03:38:46.448Z,1.39
2023-12-02T03:39:45.568Z,1.44
2023-12-02T03:40:45.552Z,1.45
2023-12-02T03:41:45.445Z,1.20
2023-12-02T03:42:45.388Z,1.38
2023-12-02T03:43:54.907Z,1.53
2023-12-02T03:44:46.295Z,1.38
2023-12-02T03:45:45.268Z,1.24
2023-12-02T03:46:45.277Z,1.13
2023-12-02T03:47:45.223Z,1.17
2023-12-02T03:48:45.179Z,1.26
2023-12-02T03:49:45.119Z,1.30
2023-12-02T03:50:45.000Z,1.21
2023-12-02T03:51:44.985Z,1.59
2023-12-02T03:52:45.482Z,1.11
2023-12-02T03:53:44.873Z,1.43
2023-12-02T03:54:44.798Z,1.34
2023-12-02T03:55:45.475Z,1.41
2023-12-02T03:56:44.704Z,1.58
2023-12-02T03:57:44.643Z,1.63
2023-12-02T03:58:44.563Z,1.59
2023-12-02T03:59:45.448Z,1.35
2023-12-02T04:00:45.458Z,1.46
2023-12-02T04:01:44.393Z,1.40
2023-12-02T04:02:44.340Z,1.41
2023-12-02T04:03:44.286Z,1.64
2023-12-02T04:04:44.326Z,1.67
2023-12-02T04:05:44.128Z,1.10
2023-12-02T04:06:45.093Z,1.48
2023-12-02T04:07:44.972Z,1.64
2023-12-02T04:08:44.035Z,1.66
2023-12-02T04:10:07.320Z,1.55
2023-12-02T04:10:44.432Z,1.48
2023-12-02T04:11:44.065Z,1.59
2023-12-02T04:12:43.946Z,1.74
2023-12-02T04:13:43.915Z,1.71
2023-12-02T04:14:43.786Z,1.71
2023-12-02T04:15:43.780Z,1.35
2023-12-02T04:16:43.797Z,1.21
2023-12-02T04:17:43.737Z,1.38
2023-12-02T04:18:43.709Z,1.33
2023-12-02T04:19:43.527Z,1.16
2023-12-02T04:20:43.534Z,1.49
2023-12-02T04:21:43.430Z,1.16
2023-12-02T04:22:43.992Z,1.30
2023-12-02T04:23:43.538Z,1.27
2023-12-02T04:24:43.397Z,1.48
2023-12-02T04:25:43.395Z,1.35
2023-12-02T04:26:43.968Z,1.29
2023-12-02T04:27:43.304Z,1.36
2023-12-02T04:28:43.344Z,1.37
2023-12-02T04:29:43.275Z,1.02
2023-12-02T04:30:43.209Z,1.39
2023-12-02T04:31:43.145Z,1.50
2023-12-02T04:32:43.059Z,1.26
2023-12-02T04:33:43.101Z,1.15
2023-12-02T04:34:43.563Z,1.16
2023-12-02T04:35:42.805Z,1.15
2023-12-02T04:36:43.501Z,1.42
2023-12-02T04:37:42.749Z,1.61
2023-12-02T04:38:42.735Z,34.98
2023-12-02T04:39:42.667Z,2.68
2023-12-02T04:40:42.478Z,2.12
2023-12-02T04:41:42.434Z,1.64
2023-12-02T04:42:42.383Z,1.68
2023-12-02T04:43:42.299Z,1.58
2023-12-02T04:44:42.435Z,1.39
2023-12-02T04:45:42.276Z,1.25
2023-12-02T04:46:42.239Z,1.19
2023-12-02T04:47:43.002Z,1.46
2023-12-02T04:48:42.160Z,1.41
2023-12-02T04:49:42.028Z,1.23
2023-12-02T04:50:41.877Z,1.37
2023-12-02T04:51:42.541Z,1.61
2023-12-02T04:52:41.807Z,1.38
2023-12-02T04:53:41.719Z,1.47
2023-12-02T04:54:41.681Z,1.28
2023-12-02T04:55:41.556Z,2.35
2023-12-02T04:56:41.445Z,1.85
2023-12-02T04:57:41.374Z,1.35
2023-12-02T04:59:07.888Z,1.69
2023-12-02T04:59:41.402Z,1.34
2023-12-02T05:00:41.301Z,1.33
2023-12-02T05:01:41.260Z,1.70
2023-12-02T05:02:42.036Z,1.19
2023-12-02T05:03:41.142Z,1.92
2023-12-02T05:04:41.024Z,1.20
2023-12-02T05:05:40.927Z,1.46
2023-12-02T05:06:41.564Z,1.37
2023-12-02T05:07:41.046Z,1.55
2023-12-02T05:08:41.502Z,1.63
2023-12-02T05:09:40.929Z,1.83
2023-12-02T05:10:40.875Z,1.95
2023-12-02T05:11:40.783Z,1.94
2023-12-02T05:12:40.769Z,1.90
2023-12-02T05:13:42.561Z,2.32
2023-12-02T05:14:40.591Z,2.09
2023-12-02T05:15:43.544Z,1.94
2023-12-02T05:16:40.443Z,1.93
2023-12-02T05:17:40.493Z,1.86
2023-12-02T05:18:40.486Z,1.94
2023-12-02T05:19:40.385Z,1.46
2023-12-02T05:20:40.310Z,1.89
2023-12-02T05:21:40.228Z,1.82
2023-12-02T05:22:41.043Z,2.12
2023-12-02T05:23:53.828Z,1.63
2023-12-02T05:24:53.791Z,1.55
2023-12-02T05:25:53.778Z,3.72
2023-12-02T05:26:53.607Z,15.25
2023-12-02T05:27:53.599Z,10.46
2023-12-02T05:28:53.606Z,9.62
2023-12-02T05:29:53.838Z,11.10
2023-12-02T05:30:53.528Z,9.29
2023-12-02T05:31:54.449Z,7.93
2023-12-02T05:32:53.546Z,6.25
2023-12-02T05:33:54.575Z,4.48
2023-12-02T05:34:53.618Z,3.14
2023-12-02T05:35:53.556Z,2.49
2023-12-02T05:36:53.551Z,1.89
2023-12-02T05:37:54.527Z,2.57
2023-12-02T05:38:53.544Z,2.05
2023-12-02T05:39:53.471Z,2.51
2023-12-02T05:40:54.490Z,2.22
2023-12-02T05:41:53.486Z,2.55
2023-12-02T05:42:53.428Z,2.61
2023-12-02T05:43:53.959Z,2.50
2023-12-02T05:44:53.513Z,2.30
2023-12-02T05:45:55.184Z,2.77
2023-12-02T05:46:53.515Z,2.29
2023-12-02T05:47:53.530Z,2.85
2023-12-02T05:48:53.571Z,2.48
2023-12-02T05:49:53.419Z,2.62
2023-12-02T05:50:53.364Z,2.70
2023-12-02T05:51:53.465Z,2.88
2023-12-02T05:52:53.954Z,3.04
2023-12-02T05:53:53.268Z,2.18
2023-12-02T05:54:53.318Z,2.51
2023-12-02T05:55:53.209Z,2.43
2023-12-02T05:56:53.203Z,2.49
2023-12-02T05:57:53.214Z,2.34
2023-12-02T05:58:53.190Z,1.99
2023-12-02T05:59:53.235Z,2.48
2023-12-02T06:00:53.204Z,2.63
2023-12-02T06:01:53.267Z,4.31
2023-12-02T06:02:53.244Z,3.16
2023-12-02T06:03:53.321Z,3.06
2023-12-02T06:04:53.192Z,3.26
2023-12-02T06:05:53.051Z,3.21
2023-12-02T06:06:53.209Z,2.80
2023-12-02T06:07:53.061Z,3.23
2023-12-02T06:08:53.075Z,3.07
2023-12-02T06:09:53.138Z,2.63
2023-12-02T06:10:53.146Z,2.31
2023-12-02T06:11:53.034Z,2.96
2023-12-02T06:12:53.025Z,2.66
2023-12-02T06:13:53.070Z,2.65
2023-12-02T06:14:53.023Z,2.52
2023-12-02T06:15:52.978Z,2.80
2023-12-02T06:16:53.509Z,2.43
2023-12-02T06:17:52.985Z,2.79
2023-12-02T06:18:53.117Z,2.58
2023-12-02T06:19:52.958Z,2.51
2023-12-02T06:20:53.475Z,3.29
2023-12-02T06:21:52.870Z,2.66
2023-12-02T06:22:52.824Z,2.64
2023-12-02T06:23:52.889Z,3.28
2023-12-02T06:24:52.849Z,3.12
2023-12-02T06:25:52.773Z,2.60
2023-12-02T06:26:52.702Z,2.47
2023-12-02T06:27:52.719Z,4.33
2023-12-02T06:28:52.704Z,4.48
2023-12-02T06:29:52.705Z,3.12
2023-12-02T06:30:52.666Z,3.07
2023-12-02T06:31:52.613Z,11.73
2023-12-02T06:32:52.603Z,8.94
2023-12-02T06:33:52.581Z,3.26
2023-12-02T06:34:52.606Z,3.38
2023-12-02T06:35:52.433Z,3.56
2023-12-02T06:36:52.451Z,3.40
2023-12-02T06:37:53.014Z,2.89
2023-12-02T06:38:52.363Z,3.22
2023-12-02T06:39:52.372Z,3.27
2023-12-02T06:40:52.415Z,3.00
2023-12-02T06:41:52.330Z,3.19
2023-12-02T06:42:52.349Z,3.12
2023-12-02T06:43:52.333Z,2.87
2023-12-02T06:44:52.200Z,3.11
2023-12-02T06:45:53.860Z,2.28
2023-12-02T06:46:52.115Z,2.21
2023-12-02T06:47:52.124Z,3.06
2023-12-02T06:48:52.244Z,2.59
2023-12-02T06:49:52.079Z,2.11
2023-12-02T06:50:52.036Z,2.04
2023-12-02T06:51:52.070Z,2.36
2023-12-02T06:52:52.015Z,2.24
2023-12-02T06:53:51.947Z,2.21
2023-12-02T06:55:51.880Z,2.34
2023-12-02T06:56:51.876Z,2.11
2023-12-02T06:57:51.775Z,2.23
2023-12-02T06:58:51.907Z,2.15
2023-12-02T06:59:52.463Z,2.34
2023-12-02T07:00:51.726Z,2.45
2023-12-02T07:01:51.686Z,3.41
2023-12-02T07:02:51.986Z,4.91
2023-12-02T07:03:51.619Z,5.93
2023-12-02T07:04:51.616Z,6.50
2023-12-02T07:05:51.652Z,6.26
2023-12-02T07:06:51.491Z,5.55
2023-12-02T07:07:51.479Z,4.44
2023-12-02T07:08:51.970Z,3.82
2023-12-02T07:09:51.981Z,4.09
2023-12-02T07:10:51.472Z,4.21
2023-12-02T07:11:51.372Z,3.31
2023-12-02T07:12:51.465Z,3.05
2023-12-02T07:13:51.355Z,3.10
2023-12-02T07:14:51.967Z,2.81
2023-12-02T07:15:51.277Z,3.43
2023-12-02T07:16:51.223Z,3.75
2023-12-02T07:17:51.235Z,3.66
2023-12-02T07:18:51.258Z,3.34
2023-12-02T07:19:51.219Z,3.72
2023-12-02T07:20:51.120Z,3.50
2023-12-02T07:21:52.020Z,3.80
2023-12-02T07:22:51.226Z,4.43
2023-12-02T07:23:51.081Z,4.15
2023-12-02T07:24:51.062Z,4.62
2023-12-02T07:25:51.056Z,4.82
2023-12-02T07:26:51.021Z,4.87
2023-12-02T07:27:51.076Z,5.73
2023-12-02T07:28:50.951Z,6.88
2023-12-02T07:30:51.565Z,5.39
2023-12-02T07:31:50.878Z,4.62
2023-12-02T07:32:50.806Z,4.48
2023-12-02T07:33:50.813Z,4.53
2023-12-02T07:34:50.856Z,4.58
2023-12-02T07:35:51.539Z,4.38
2023-12-02T07:36:50.716Z,5.14
2023-12-02T07:37:50.702Z,4.79
2023-12-02T07:38:50.619Z,4.58
2023-12-02T07:39:50.652Z,4.93
2023-12-02T07:40:50.641Z,4.60
2023-12-02T07:41:50.576Z,4.85
2023-12-02T07:42:51.208Z,4.46
2023-12-02T07:43:50.567Z,4.58
2023-12-02T07:44:50.659Z,4.56
2023-12-02T07:45:50.502Z,5.19
2023-12-02T07:46:50.420Z,5.50
2023-12-02T07:47:50.448Z,5.17
2023-12-02T07:48:50.469Z,5.39
2023-12-02T07:49:50.481Z,5.19
2023-12-02T07:50:50.310Z,4.54
2023-12-02T07:51:50.362Z,4.57
2023-12-02T07:52:50.246Z,5.14
2023-12-02T07:53:50.338Z,4.64
2023-12-02T07:54:50.258Z,5.03
2023-12-02T07:55:50.377Z,4.95
2023-12-02T07:56:50.213Z,4.44
2023-12-02T07:57:50.282Z,3.63
2023-12-02T07:58:50.296Z,4.13
2023-12-02T07:59:50.280Z,4.36
2023-12-02T08:00:50.327Z,4.78
2023-12-02T08:01:50.338Z,5.00
2023-12-02T08:02:50.352Z,4.31
2023-12-02T08:03:50.302Z,4.13
2023-12-02T08:05:51.090Z,4.02
2023-12-02T08:06:50.163Z,4.58
2023-12-02T08:07:50.024Z,4.11
2023-12-02T08:08:50.941Z,4.61
2023-12-02T08:09:50.156Z,4.70
2023-12-02T08:10:51.006Z,5.61
2023-12-02T08:11:50.027Z,4.58
2023-12-02T08:12:50.482Z,4.52
2023-12-02T08:13:50.514Z,4.17
2023-12-02T08:14:50.478Z,3.88
2023-12-02T08:15:50.551Z,4.73
2023-12-02T08:16:50.206Z,3.99
2023-12-02T08:17:51.021Z,4.38
2023-12-02T08:18:50.073Z,4.84
2023-12-02T08:19:50.142Z,4.77
2023-12-02T08:20:50.033Z,4.98
2023-12-02T08:21:50.030Z,5.17
2023-12-02T08:22:50.023Z,4.89
2023-12-02T08:23:49.987Z,5.01
2023-12-02T08:24:50.450Z,5.49
2023-12-02T08:25:50.051Z,5.03
2023-12-02T08:26:50.482Z,4.41
2023-12-02T08:27:49.968Z,4.70
2023-12-02T08:28:50.075Z,4.76
2023-12-02T08:29:50.057Z,4.39
2023-12-02T08:30:49.948Z,4.99
2023-12-02T08:31:50.543Z,4.65
2023-12-02T08:32:50.571Z,4.62
2023-12-02T08:33:50.129Z,5.05
2023-12-02T08:34:50.106Z,5.03
2023-12-02T08:35:49.996Z,4.76
2023-12-02T08:36:50.513Z,4.99
2023-12-02T08:37:49.943Z,4.65
2023-12-02T08:38:49.911Z,4.71
2023-12-02T08:39:49.818Z,4.38
2023-12-02T08:40:49.872Z,3.71
2023-12-02T08:41:49.812Z,3.62
2023-12-02T08:42:49.742Z,3.99
2023-12-02T08:43:49.686Z,3.86
2023-12-02T08:44:49.645Z,4.12
2023-12-02T08:45:49.735Z,3.85
2023-12-02T08:46:50.672Z,4.08
2023-12-02T08:47:49.659Z,4.02
2023-12-02T08:48:49.631Z,4.08
2023-12-02T08:49:49.619Z,4.34
2023-12-02T08:50:49.467Z,4.38
2023-12-02T08:51:50.019Z,4.39
2023-12-02T08:52:50.066Z,4.44
2023-12-02T08:53:50.014Z,4.37
2023-12-02T08:54:49.279Z,4.18
2023-12-02T08:55:49.386Z,4.32
2023-12-02T08:56:49.185Z,4.08
2023-12-02T08:57:49.956Z,4.45
2023-12-02T08:58:49.174Z,5.08
2023-12-02T08:59:49.977Z,4.54
2023-12-02T09:00:50.593Z,4.47
2023-12-02T09:01:49.012Z,4.62
2023-12-02T09:02:49.280Z,4.30
2023-12-02T09:03:49.016Z,4.32
2023-12-02T09:04:49.560Z,5.10
2023-12-02T09:05:49.510Z,5.00
2023-12-02T09:06:48.964Z,4.46
2023-12-02T09:07:49.704Z,4.80
2023-12-02T09:08:50.098Z,4.76
2023-12-02T09:09:50.059Z,5.49
2023-12-02T09:10:49.080Z,4.54
2023-12-02T09:11:49.061Z,4.45
2023-12-02T09:12:49.896Z,4.76
2023-12-02T09:13:49.059Z,5.50
2023-12-02T09:14:48.923Z,5.13
2023-12-02T09:15:48.724Z,5.51
2023-12-02T09:16:48.847Z,4.94
2023-12-02T09:17:48.709Z,4.93
2023-12-02T09:18:48.719Z,5.02
2023-12-02T09:19:48.691Z,5.30
2023-12-02T09:20:48.630Z,5.16
2023-12-02T09:21:48.657Z,4.82
2023-12-02T09:22:48.631Z,5.07
2023-12-02T09:23:50.101Z,5.27
2023-12-02T09:24:48.512Z,6.08
2023-12-02T09:25:48.544Z,5.82
2023-12-02T09:26:48.506Z,5.37
2023-12-02T09:27:48.473Z,5.87
2023-12-02T09:28:48.507Z,5.50
2023-12-02T09:29:48.345Z,6.17
2023-12-02T09:30:48.343Z,5.91
2023-12-02T09:31:48.305Z,5.20
2023-12-02T09:32:48.303Z,5.80
2023-12-02T09:33:48.300Z,6.31
2023-12-02T09:34:48.285Z,6.91
2023-12-02T09:35:48.260Z,6.71
2023-12-02T09:36:48.227Z,5.36
2023-12-02T09:37:48.162Z,6.73
2023-12-02T09:38:48.257Z,6.13
2023-12-02T09:39:49.023Z,6.65
2023-12-02T09:40:48.167Z,6.12
2023-12-02T09:41:49.066Z,6.36
2023-12-02T09:42:48.093Z,6.27
2023-12-02T09:43:48.151Z,5.99
2023-12-02T09:44:48.067Z,6.31
2023-12-02T09:45:48.007Z,7.82
2023-12-02T09:46:48.019Z,6.55
2023-12-02T09:47:47.852Z,6.04
2023-12-02T09:48:47.959Z,6.45
2023-12-02T09:49:47.912Z,5.81
2023-12-02T09:50:47.961Z,6.42
2023-12-02T09:51:47.866Z,6.36
2023-12-02T09:52:48.552Z,6.02
2023-12-02T09:53:48.530Z,5.75
2023-12-02T09:54:47.776Z,5.85
2023-12-02T09:55:47.729Z,6.15
2023-12-02T09:56:47.770Z,5.43
2023-12-02T09:57:47.606Z,5.87
2023-12-02T09:58:47.617Z,6.27
2023-12-02T09:59:47.599Z,5.43
2023-12-02T10:00:47.616Z,5.23
2023-12-02T10:01:47.625Z,5.67
2023-12-02T10:02:48.164Z,5.66
2023-12-02T10:03:47.487Z,5.47
2023-12-02T10:04:47.471Z,6.49
2023-12-02T10:05:47.362Z,6.34
2023-12-02T10:06:47.439Z,6.22
2023-12-02T10:07:47.367Z,5.52
2023-12-02T10:08:47.360Z,6.07
2023-12-02T10:09:48.127Z,5.89
2023-12-02T10:10:48.033Z,10.40
2023-12-02T10:11:47.182Z,6.92
2023-12-02T10:12:47.122Z,6.16
2023-12-02T10:13:47.165Z,6.25
2023-12-02T10:14:47.053Z,5.93
2023-12-02T10:15:47.114Z,6.65
2023-12-02T10:16:47.033Z,7.09
2023-12-02T10:17:47.556Z,6.97
2023-12-02T10:18:47.064Z,7.39
2023-12-02T10:19:48.073Z,7.10
2023-12-02T10:20:47.060Z,6.95
2023-12-02T10:21:47.530Z,6.94
2023-12-02T10:22:47.067Z,6.58
2023-12-02T10:23:46.964Z,7.52
2023-12-02T10:24:46.971Z,6.67
2023-12-02T10:25:47.006Z,6.60
2023-12-02T10:26:46.862Z,6.94
2023-12-02T10:27:46.856Z,7.34
2023-12-02T10:28:46.768Z,7.58
2023-12-02T10:29:46.743Z,7.33
2023-12-02T10:30:47.548Z,7.99
2023-12-02T10:31:48.233Z,7.05
2023-12-02T10:32:46.659Z,7.47
2023-12-02T10:33:47.558Z,8.18
2023-12-02T10:34:47.615Z,8.24
2023-12-02T10:35:46.640Z,7.78
2023-12-02T10:36:47.066Z,8.28
2023-12-02T10:37:46.510Z,8.43
2023-12-02T10:38:46.508Z,9.40
2023-12-02T10:39:46.467Z,11.90
2023-12-02T10:40:47.058Z,16.36
2023-12-02T10:41:46.315Z,15.57
2023-12-02T10:42:46.316Z,18.44
2023-12-02T10:43:46.321Z,20.31
2023-12-02T10:44:46.289Z,9.81
2023-12-02T10:45:46.277Z,7.50
2023-12-02T10:46:47.111Z,8.23
2023-12-02T10:47:46.167Z,9.25
2023-12-02T10:48:46.277Z,8.24
2023-12-02T10:49:47.170Z,7.94
2023-12-02T10:50:46.189Z,8.10
2023-12-02T10:51:46.025Z,9.26
2023-12-02T10:52:46.051Z,8.85
2023-12-02T10:53:45.991Z,6.66
2023-12-02T10:54:45.888Z,6.61
2023-12-02T10:55:46.544Z,7.37
2023-12-02T10:56:46.544Z,8.63
2023-12-02T10:57:45.854Z,9.86
2023-12-02T10:58:45.802Z,12.65
2023-12-02T10:59:45.743Z,12.55
2023-12-02T11:00:45.802Z,12.38
2023-12-02T11:01:45.753Z,11.39
2023-12-02T11:02:45.691Z,6.34
2023-12-02T11:03:45.614Z,9.41
2023-12-02T11:04:45.626Z,7.91
2023-12-02T11:05:46.643Z,8.80
2023-12-02T11:06:45.644Z,9.47
2023-12-02T11:07:45.526Z,9.92
2023-12-02T11:08:46.205Z,8.66
2023-12-02T11:09:46.676Z,8.42
2023-12-02T11:10:45.504Z,8.02
2023-12-02T11:11:45.465Z,7.93
2023-12-02T11:12:46.018Z,6.78
2023-12-02T11:13:45.355Z,8.06
2023-12-02T11:14:46.060Z,6.72
2023-12-02T11:15:45.986Z,6.87
2023-12-02T11:16:45.520Z,7.47
2023-12-02T11:17:45.604Z,6.68
2023-12-02T11:18:46.058Z,7.40
2023-12-02T11:19:45.581Z,6.88
2023-12-02T11:20:45.588Z,6.90
2023-12-02T11:21:46.110Z,6.95
2023-12-02T11:22:46.549Z,6.90
2023-12-02T11:23:46.536Z,8.09
2023-12-02T11:24:45.536Z,7.60
2023-12-02T11:25:45.588Z,6.28
2023-12-02T11:26:45.461Z,6.98
2023-12-02T11:27:45.849Z,6.52
2023-12-02T11:28:45.395Z,7.16
2023-12-02T11:29:45.419Z,7.30
2023-12-02T11:30:45.390Z,6.76
2023-12-02T11:31:46.049Z,7.28
2023-12-02T11:32:46.025Z,6.75
2023-12-02T11:33:45.937Z,7.55
2023-12-02T11:34:45.347Z,7.38
2023-12-02T11:35:48.271Z,6.31
2023-12-02T11:36:45.216Z,7.33
2023-12-02T11:37:45.225Z,6.93
2023-12-02T11:38:46.075Z,8.29
2023-12-02T11:39:45.165Z,8.24
2023-12-02T11:40:45.997Z,7.98
2023-12-02T11:41:46.062Z,7.74
2023-12-02T11:42:45.041Z,8.38
2023-12-02T11:43:45.539Z,9.15
2023-12-02T11:44:44.977Z,7.88
2023-12-02T11:45:44.977Z,7.27
2023-12-02T11:46:44.910Z,7.34
2023-12-02T11:47:45.602Z,8.43
2023-12-02T11:48:44.890Z,8.41
2023-12-02T11:49:45.620Z,8.02
2023-12-02T11:50:44.788Z,7.47
2023-12-02T11:51:44.696Z,7.25
2023-12-02T11:52:44.678Z,7.94
2023-12-02T11:53:45.564Z,8.02
2023-12-02T11:54:44.595Z,7.66
2023-12-02T11:55:45.658Z,7.66
2023-12-02T11:56:44.486Z,8.16
2023-12-02T11:57:44.491Z,7.07
2023-12-02T11:58:44.507Z,6.83
2023-12-02T11:59:44.454Z,8.00
2023-12-02T12:00:44.713Z,9.07
2023-12-02T12:01:44.542Z,10.16
2023-12-02T12:02:45.129Z,9.18
2023-12-02T12:03:44.363Z,9.19
2023-12-02T12:04:44.378Z,9.41
2023-12-02T12:05:45.173Z,9.11
2023-12-02T12:06:44.446Z,9.42
2023-12-02T12:07:44.246Z,8.19
2023-12-02T12:08:44.179Z,8.81
2023-12-02T12:09:44.283Z,8.41
2023-12-02T12:10:45.083Z,9.02
2023-12-02T12:11:44.134Z,12.78
2023-12-02T12:12:44.152Z,11.46
2023-12-02T12:13:44.026Z,11.15
2023-12-02T12:14:44.653Z,14.49
2023-12-02T12:15:44.535Z,16.96
2023-12-02T12:16:44.147Z,43.83
2023-12-02T12:17:45.067Z,34.90
2023-12-02T12:18:44.275Z,20.99
2023-12-02T12:19:44.241Z,13.93
2023-12-02T12:20:45.078Z,11.68
2023-12-02T12:21:44.293Z,10.12
2023-12-02T12:22:44.384Z,10.29
2023-12-02T12:23:44.296Z,9.96
2023-12-02T12:24:45.002Z,9.05
2023-12-02T12:25:44.271Z,9.66
2023-12-02T12:26:44.235Z,8.96
2023-12-02T12:27:44.241Z,9.17
2023-12-02T12:28:44.224Z,7.81
2023-12-02T12:29:45.108Z,9.52
2023-12-02T12:30:44.157Z,9.83
2023-12-02T12:31:44.044Z,9.02
2023-12-02T12:32:44.668Z,9.22
2023-12-02T12:33:44.667Z,9.33
2023-12-02T12:34:44.564Z,8.51
2023-12-02T12:35:43.998Z,9.44
2023-12-02T12:36:43.965Z,9.24
2023-12-02T12:37:44.565Z,8.57
2023-12-02T12:38:43.889Z,8.64
2023-12-02T12:39:44.595Z,8.79
2023-12-02T12:40:44.509Z,8.77
2023-12-02T12:41:43.789Z,7.97
2023-12-02T12:42:44.597Z,7.99
2023-12-02T12:43:46.528Z,8.94
2023-12-02T12:44:43.651Z,7.74
2023-12-02T12:45:43.809Z,7.35
2023-12-02T12:46:43.738Z,7.43
2023-12-02T12:47:43.741Z,7.83
2023-12-02T12:48:44.128Z,9.33
2023-12-02T12:49:44.675Z,8.27
2023-12-02T12:50:43.625Z,9.05
2023-12-02T12:51:43.585Z,8.20
2023-12-02T12:52:44.142Z,8.19
2023-12-02T12:53:43.600Z,8.52
2023-12-02T12:54:43.611Z,9.48
2023-12-02T12:55:43.625Z,9.55
2023-12-02T12:56:43.476Z,9.22
2023-12-02T12:57:43.370Z,8.51
2023-12-02T12:58:43.381Z,8.66
2023-12-02T12:59:43.340Z,8.98
2023-12-02T13:00:44.179Z,8.04
2023-12-02T13:01:43.410Z,9.36
2023-12-02T13:02:43.200Z,9.13
2023-12-02T13:03:43.179Z,8.54
2023-12-02T13:04:43.232Z,8.88
2023-12-02T13:05:43.087Z,8.33
2023-12-02T13:06:43.036Z,9.14
2023-12-02T13:07:43.032Z,8.63
2023-12-02T13:08:42.975Z,9.13
2023-12-02T13:09:43.702Z,8.03
2023-12-02T13:10:42.942Z,8.27
2023-12-02T13:11:43.618Z,7.98
2023-12-02T13:12:43.015Z,8.00
2023-12-02T13:13:42.911Z,9.10
2023-12-02T13:14:42.835Z,8.64
2023-12-02T13:15:42.831Z,8.38
2023-12-02T13:16:43.595Z,9.22
2023-12-02T13:17:42.750Z,8.34
2023-12-02T13:18:43.647Z,8.53
2023-12-02T13:19:45.001Z,8.29